Weather at Flugplatz Birrfeld

Public forecast

Using degrees Celsius for public forecast. Weather courtesy of forecast.io.

Closest aviation weather report (METAR) to Flugplatz Birrfeld

Closest report is Zürich Airport, 12.9 nm (23.8 km) E. Retrieved 2020/10/19 23:20 UTC (10 minutes ago):

LSZH 192320Z 31001KT 0250 R14/0400N R16/0375N R28/0375N R34/0350D FG VV001 03/03 Q1019 NOSIG

Closest aviation forecast (TAF) to Flugplatz Birrfeld

Closest forecast is Zürich Airport, 12.9 nm (23.8 km) E. Retrieved 2020/10/19 21:37 UTC (2 hours ago):

TAF LSZH 192025Z 1921/2103 VRB03KT 4000 MIFG NSC TX15/2014Z TN02/2005Z BECMG 1921/1923 1500 BCFG BKN004 BECMG 1923/2001 0800 PRFG VV003 TEMPO 2002/2008 0500 FG VV002 PROB40 2002/2007 0300 FG VV001 BECMG 2008/2011 5000 BR SCT003 BECMG 2009/2012 CAVOK BECMG 2021/2024 3000 MIFG BECMG 2100/2103 1500 BCFG BKN003